createdAt,value
2023-04-19T00:00:49.820Z,19.70
2023-04-19T00:03:17.692Z,18.70
2023-04-19T00:05:44.776Z,21.03
2023-04-19T00:08:11.639Z,22.40
2023-04-19T00:10:38.527Z,21.50
2023-04-19T00:13:05.540Z,20.07
2023-04-19T00:15:32.450Z,20.57
2023-04-19T00:17:59.364Z,20.00
2023-04-19T00:20:26.198Z,20.37
2023-04-19T00:22:53.037Z,18.73
2023-04-19T00:25:19.836Z,19.50
2023-04-19T00:27:46.669Z,21.73
2023-04-19T00:30:14.262Z,22.40
2023-04-19T00:32:41.220Z,22.27
2023-04-19T00:35:08.696Z,24.90
2023-04-19T00:37:35.558Z,22.40
2023-04-19T00:40:02.349Z,22.40
2023-04-19T00:42:29.262Z,19.60
2023-04-19T00:44:56.062Z,21.23
2023-04-19T00:47:23.003Z,20.87
2023-04-19T00:49:50.105Z,19.80
2023-04-19T00:52:17.108Z,20.27
2023-04-19T00:54:45.698Z,20.20
2023-04-19T00:57:12.738Z,19.47
2023-04-19T00:59:40.202Z,20.60
2023-04-19T01:02:07.131Z,17.57
2023-04-19T01:04:34.236Z,21.20
2023-04-19T01:07:02.724Z,20.73
2023-04-19T01:09:29.550Z,22.70
2023-04-19T01:11:56.386Z,26.93
2023-04-19T01:14:23.167Z,21.50
2023-04-19T01:16:50.049Z,24.30
2023-04-19T01:19:16.921Z,24.30
2023-04-19T01:21:43.821Z,20.40
2023-04-19T01:24:10.704Z,22.30
2023-04-19T01:26:37.825Z,20.10
2023-04-19T01:29:04.668Z,23.27
2023-04-19T01:31:31.552Z,19.30
2023-04-19T01:33:58.708Z,22.60
2023-04-19T01:36:25.659Z,20.93
2023-04-19T01:38:52.653Z,21.90
2023-04-19T01:41:19.662Z,23.37
2023-04-19T01:43:46.522Z,18.20
2023-04-19T01:46:13.292Z,21.37
2023-04-19T01:48:40.280Z,20.20
2023-04-19T01:51:07.077Z,22.93
2023-04-19T01:53:33.974Z,19.90
2023-04-19T01:56:00.814Z,21.67
2023-04-19T01:58:27.690Z,20.90
2023-04-19T02:00:54.548Z,19.90
2023-04-19T02:03:21.509Z,19.17
2023-04-19T02:05:48.483Z,18.83
2023-04-19T02:08:15.366Z,20.33
2023-04-19T02:10:42.207Z,20.10
2023-04-19T02:13:09.265Z,19.63
2023-04-19T02:15:37.640Z,19.37
2023-04-19T02:18:04.633Z,17.90
2023-04-19T02:20:31.608Z,16.67
2023-04-19T02:22:58.444Z,19.37
2023-04-19T02:25:25.312Z,21.53
2023-04-19T02:27:52.188Z,22.07
2023-04-19T02:30:19.043Z,21.43
2023-04-19T02:32:49.168Z,22.07
2023-04-19T02:35:16.074Z,20.53
2023-04-19T02:37:43.387Z,23.43
2023-04-19T02:40:10.505Z,20.53
2023-04-19T02:42:37.461Z,22.27
2023-04-19T02:45:04.710Z,20.17
2023-04-19T02:47:31.629Z,23.47
2023-04-19T02:49:59.802Z,21.67
2023-04-19T02:52:27.392Z,22.80
2023-04-19T02:54:55.588Z,23.30
2023-04-19T02:57:22.473Z,23.37
2023-04-19T02:59:49.310Z,21.57
2023-04-19T03:02:16.200Z,24.97
2023-04-19T03:04:43.059Z,27.00
2023-04-19T03:07:10.514Z,23.83
2023-04-19T03:09:37.534Z,25.53
2023-04-19T03:12:05.597Z,25.80
2023-04-19T03:14:32.409Z,22.53
2023-04-19T03:16:59.205Z,22.67
2023-04-19T03:19:26.082Z,23.43
2023-04-19T03:21:53.003Z,23.10
2023-04-19T03:24:20.200Z,24.40
2023-04-19T03:26:47.089Z,24.57
2023-04-19T03:29:13.945Z,25.07
2023-04-19T03:31:40.897Z,25.30
2023-04-19T03:34:07.816Z,21.13
2023-04-19T03:36:34.664Z,19.90
2023-04-19T03:39:04.200Z,22.30
2023-04-19T03:41:31.001Z,23.67
2023-04-19T03:43:58.105Z,23.93
2023-04-19T03:46:25.579Z,26.87
2023-04-19T03:48:52.511Z,21.23
2023-04-19T03:51:19.310Z,21.63
2023-04-19T03:53:46.203Z,23.30
2023-04-19T03:56:13.049Z,20.47
2023-04-19T03:58:41.105Z,23.30
2023-04-19T04:01:21.580Z,20.17
2023-04-19T04:03:48.970Z,16.10
2023-04-19T04:06:16.280Z,19.80
2023-04-19T04:08:43.145Z,20.37
2023-04-19T04:11:10.203Z,18.83
2023-04-19T04:13:37.145Z,23.33
2023-04-19T04:16:04.285Z,18.77
2023-04-19T04:18:31.153Z,22.57
2023-04-19T04:20:57.942Z,21.57
2023-04-19T04:23:25.685Z,19.60
2023-04-19T04:26:02.035Z,22.00
2023-04-19T04:28:29.070Z,19.40
2023-04-19T04:30:57.507Z,19.03
2023-04-19T04:33:28.735Z,25.30
2023-04-19T04:35:56.641Z,24.00
2023-04-19T04:38:25.114Z,25.27
2023-04-19T04:40:56.451Z,25.47
2023-04-19T04:43:25.394Z,28.10
2023-04-19T04:45:52.287Z,28.63
2023-04-19T04:48:19.216Z,28.10
2023-04-19T04:50:46.021Z,28.77
2023-04-19T04:53:13.242Z,29.60
2023-04-19T04:55:40.463Z,29.87
2023-04-19T04:58:07.564Z,29.47
2023-04-19T05:00:34.557Z,31.17
2023-04-19T05:03:01.739Z,30.93
2023-04-19T05:05:28.770Z,41.23
2023-04-19T05:07:55.580Z,35.47
2023-04-19T05:10:22.397Z,35.53
2023-04-19T05:12:49.188Z,30.83
2023-04-19T05:15:16.059Z,31.37
2023-04-19T05:17:43.121Z,32.50
2023-04-19T05:20:11.121Z,32.00
2023-04-19T05:22:38.753Z,34.07
2023-04-19T05:25:07.046Z,34.50
2023-04-19T05:27:33.904Z,35.37
2023-04-19T05:30:00.845Z,39.90
2023-04-19T05:32:27.656Z,41.67
2023-04-19T05:34:54.630Z,35.90
2023-04-19T05:37:21.469Z,34.50
2023-04-19T05:39:48.293Z,38.40
2023-04-19T05:42:15.159Z,39.57
2023-04-19T05:44:42.303Z,42.83
2023-04-19T05:47:09.137Z,39.97
2023-04-19T05:49:35.981Z,38.77
2023-04-19T05:52:02.814Z,44.70
2023-04-19T05:54:29.724Z,39.70
2023-04-19T05:56:56.589Z,36.33
2023-04-19T05:59:23.471Z,40.00
2023-04-19T06:01:50.369Z,43.87
2023-04-19T06:04:17.628Z,41.70
2023-04-19T06:06:45.121Z,39.30
2023-04-19T06:09:12.109Z,37.33
2023-04-19T06:11:49.441Z,37.17
2023-04-19T06:14:18.768Z,36.97
2023-04-19T06:16:46.232Z,37.80
2023-04-19T06:19:13.221Z,37.30
2023-04-19T06:21:40.084Z,36.07
2023-04-19T06:24:07.734Z,34.67
2023-04-19T06:26:34.697Z,35.00
2023-04-19T06:29:01.740Z,36.10
2023-04-19T06:31:28.749Z,35.17
2023-04-19T06:33:55.836Z,34.60
2023-04-19T06:36:22.714Z,35.53
2023-04-19T06:38:49.662Z,32.37
2023-04-19T06:41:16.473Z,31.30
2023-04-19T06:43:43.478Z,32.37
2023-04-19T06:46:10.563Z,31.60
2023-04-19T06:48:38.370Z,32.27
2023-04-19T06:51:05.292Z,29.63
2023-04-19T06:53:32.166Z,31.50
2023-04-19T06:56:02.498Z,33.10
2023-04-19T06:58:29.613Z,32.10
2023-04-19T07:00:56.703Z,31.03
2023-04-19T07:03:24.062Z,30.77
2023-04-19T07:05:51.361Z,34.00
2023-04-19T07:08:18.531Z,38.10
2023-04-19T07:10:45.351Z,37.37
2023-04-19T07:13:12.387Z,36.87
2023-04-19T07:15:39.468Z,34.63
2023-04-19T07:18:06.397Z,33.87
2023-04-19T07:20:33.349Z,34.83
2023-04-19T07:23:00.450Z,35.30
2023-04-19T07:25:27.754Z,29.73
2023-04-19T07:27:55.636Z,32.80
2023-04-19T07:30:23.152Z,28.77
2023-04-19T07:32:50.193Z,35.23
2023-04-19T07:35:17.203Z,30.70
2023-04-19T07:37:44.088Z,29.83
2023-04-19T07:40:11.889Z,34.07
2023-04-19T07:42:38.756Z,31.57
2023-04-19T07:45:06.562Z,33.30
2023-04-19T07:47:33.493Z,33.30
2023-04-19T07:50:00.546Z,28.80
2023-04-19T07:52:27.486Z,30.73
2023-04-19T07:54:54.409Z,34.43
2023-04-19T07:57:21.338Z,34.97
2023-04-19T07:59:48.195Z,30.53
2023-04-19T08:02:15.160Z,33.07
2023-04-19T08:04:42.368Z,35.50
2023-04-19T08:07:09.889Z,29.13
2023-04-19T08:09:36.968Z,32.00
2023-04-19T08:12:04.040Z,32.20
2023-04-19T08:14:40.590Z,34.97
2023-04-19T08:17:23.958Z,32.17
2023-04-19T08:19:52.838Z,32.30
2023-04-19T08:22:21.314Z,30.17
2023-04-19T08:24:51.709Z,27.00
2023-04-19T08:27:19.995Z,26.27
2023-04-19T08:29:47.044Z,26.57
2023-04-19T08:32:14.011Z,28.90
2023-04-19T08:34:40.934Z,27.80
2023-04-19T08:37:08.071Z,28.07
2023-04-19T08:39:35.555Z,27.20
2023-04-19T08:42:13.380Z,26.00
2023-04-19T08:45:06.408Z,28.77
2023-04-19T08:50:24.046Z,25.90
2023-04-19T08:53:05.246Z,27.60
2023-04-19T08:55:59.127Z,22.63
2023-04-19T08:58:45.818Z,24.50
2023-04-19T09:04:01.116Z,24.03
2023-04-19T09:06:41.259Z,27.33
2023-04-19T09:11:47.023Z,25.67
2023-04-19T09:14:19.314Z,24.40
2023-04-19T09:16:46.859Z,27.60
2023-04-19T09:19:23.412Z,26.80
2023-04-19T09:21:52.559Z,23.53
2023-04-19T09:24:19.383Z,24.10
2023-04-19T09:26:55.893Z,23.37
2023-04-19T09:29:22.776Z,24.60
2023-04-19T09:32:00.381Z,24.10
2023-04-19T09:34:27.428Z,24.40
2023-04-19T09:37:04.738Z,25.97
2023-04-19T09:39:40.227Z,24.70
2023-04-19T09:42:07.044Z,24.80
2023-04-19T09:45:05.912Z,27.80
2023-04-19T09:47:29.274Z,22.70
2023-04-19T09:50:21.342Z,23.30
2023-04-19T09:52:52.498Z,25.30
2023-04-19T09:55:29.561Z,23.30
2023-04-19T09:57:58.654Z,25.13
2023-04-19T10:00:26.996Z,25.00
2023-04-19T10:02:58.727Z,28.87
2023-04-19T10:05:26.865Z,28.93
2023-04-19T10:07:57.450Z,28.80
2023-04-19T10:10:40.569Z,24.70
2023-04-19T10:15:51.305Z,28.30
2023-04-19T10:18:23.624Z,25.70
2023-04-19T10:21:01.847Z,26.53
2023-04-19T10:23:29.463Z,22.57
2023-04-19T10:25:58.187Z,27.00
2023-04-19T10:28:28.891Z,17.07
2023-04-19T10:31:00.820Z,9.60
2023-04-19T10:33:31.208Z,6.73
2023-04-19T10:35:59.676Z,6.50
2023-04-19T10:38:42.599Z,5.80
2023-04-19T10:41:10.035Z,5.50
2023-04-19T10:43:40.860Z,7.37
2023-04-19T10:46:37.463Z,6.47
2023-04-19T10:49:06.191Z,6.57
2023-04-19T10:51:35.200Z,5.40
2023-04-19T10:54:11.219Z,4.30
2023-04-19T10:56:38.055Z,4.40
2023-04-19T10:59:04.843Z,4.10
2023-04-19T11:01:36.861Z,4.50
2023-04-19T11:04:05.038Z,4.70
2023-04-19T11:06:34.236Z,6.73
2023-04-19T11:09:01.961Z,4.70
2023-04-19T11:11:29.264Z,5.63
2023-04-19T11:13:57.969Z,5.73
2023-04-19T11:16:34.307Z,5.40
2023-04-19T11:19:09.134Z,5.80
2023-04-19T11:21:41.826Z,5.20
2023-04-19T11:24:10.234Z,5.90
2023-04-19T11:26:37.322Z,6.73
2023-04-19T11:29:04.600Z,4.30
2023-04-19T11:31:35.831Z,5.20
2023-04-19T11:34:05.855Z,5.93
2023-04-19T11:36:32.861Z,5.90
2023-04-19T11:38:59.741Z,5.17
2023-04-19T11:41:26.568Z,4.63
2023-04-19T11:43:53.767Z,4.63
2023-04-19T11:46:20.661Z,5.70
2023-04-19T11:48:53.727Z,8.97
2023-04-19T11:51:21.082Z,5.40
2023-04-19T11:53:47.980Z,7.17
2023-04-19T11:56:15.003Z,5.67
2023-04-19T11:58:44.826Z,5.20
2023-04-19T12:01:22.994Z,6.13
2023-04-19T12:03:53.755Z,5.33
2023-04-19T12:06:27.860Z,6.23
2023-04-19T12:08:56.724Z,5.50
2023-04-19T12:11:44.745Z,5.90
2023-04-19T12:14:17.810Z,5.63
2023-04-19T12:16:45.097Z,5.13
2023-04-19T12:19:18.518Z,5.80
2023-04-19T12:21:47.670Z,5.93
2023-04-19T12:24:17.756Z,5.60
2023-04-19T12:26:56.626Z,6.13
2023-04-19T12:29:23.678Z,8.60
2023-04-19T12:31:50.615Z,5.10
2023-04-19T12:34:17.487Z,6.57
2023-04-19T12:36:44.416Z,7.87
2023-04-19T12:39:11.261Z,7.30
2023-04-19T12:41:38.054Z,6.10
2023-04-19T12:44:05.156Z,7.10
2023-04-19T12:46:32.102Z,5.63
2023-04-19T12:48:59.007Z,7.30
2023-04-19T12:51:25.892Z,7.27
2023-04-19T12:53:52.895Z,8.67
2023-04-19T12:56:19.992Z,7.03
2023-04-19T12:58:47.490Z,7.93
2023-04-19T13:01:15.281Z,8.00
2023-04-19T13:03:42.600Z,7.87
2023-04-19T13:06:09.768Z,7.40
2023-04-19T13:08:44.799Z,7.90
2023-04-19T13:11:14.135Z,5.77
2023-04-19T13:13:40.994Z,5.30
2023-04-19T13:16:08.147Z,5.70
2023-04-19T13:18:35.399Z,6.17
2023-04-19T13:21:02.245Z,6.60
2023-04-19T13:23:29.099Z,7.10
2023-04-19T13:25:56.000Z,7.80
2023-04-19T13:28:22.766Z,8.13
2023-04-19T13:30:49.630Z,7.83
2023-04-19T13:33:16.450Z,8.60
2023-04-19T13:35:43.325Z,8.50
2023-04-19T13:38:10.161Z,10.23
2023-04-19T13:40:37.091Z,8.03
2023-04-19T13:43:03.897Z,8.33
2023-04-19T13:45:30.738Z,9.57
2023-04-19T13:47:57.550Z,7.33
2023-04-19T13:50:24.467Z,8.17
2023-04-19T13:52:51.984Z,6.10
2023-04-19T13:55:18.858Z,7.90
2023-04-19T13:57:47.639Z,6.90
2023-04-19T14:00:15.580Z,6.97
2023-04-19T14:02:46.102Z,6.37
2023-04-19T14:05:13.266Z,5.47
2023-04-19T14:07:40.531Z,7.53
2023-04-19T14:10:09.860Z,10.00
2023-04-19T14:12:36.696Z,5.50
2023-04-19T14:15:04.243Z,6.90
2023-04-19T14:17:31.158Z,5.27
2023-04-19T14:19:58.091Z,5.33
2023-04-19T14:22:24.978Z,5.10
2023-04-19T14:24:51.853Z,5.17
2023-04-19T14:27:18.712Z,5.57
2023-04-19T14:29:45.595Z,6.17
2023-04-19T14:32:24.864Z,6.40
2023-04-19T14:34:52.915Z,6.33
2023-04-19T14:37:21.767Z,6.80
2023-04-19T14:39:48.714Z,7.37
2023-04-19T14:42:15.588Z,5.93
2023-04-19T14:44:42.365Z,5.57
2023-04-19T14:47:09.352Z,6.27
2023-04-19T14:49:36.207Z,6.63
2023-04-19T14:52:04.871Z,5.87
2023-04-19T14:54:31.706Z,6.60
2023-04-19T14:56:59.450Z,6.80
2023-04-19T14:59:27.656Z,6.17
2023-04-19T15:01:56.517Z,7.67
2023-04-19T15:04:23.776Z,6.07
2023-04-19T15:06:50.996Z,8.73
2023-04-19T15:09:18.454Z,8.47
2023-04-19T15:11:45.643Z,8.20
2023-04-19T15:14:12.705Z,8.03
2023-04-19T15:16:39.668Z,8.10
2023-04-19T15:19:06.481Z,7.57
2023-04-19T15:21:33.610Z,8.10
2023-04-19T15:24:00.557Z,9.97
2023-04-19T15:26:27.510Z,10.07
2023-04-19T15:28:55.363Z,8.67
2023-04-19T15:31:22.285Z,9.73
2023-04-19T15:33:49.157Z,10.13
2023-04-19T15:36:16.076Z,8.90
2023-04-19T15:38:44.115Z,7.00
2023-04-19T15:41:11.435Z,9.80
2023-04-19T15:43:38.606Z,8.47
2023-04-19T15:46:05.658Z,7.57
2023-04-19T15:48:32.630Z,8.07
2023-04-19T15:50:59.521Z,8.43
2023-04-19T15:53:26.362Z,7.90
2023-04-19T15:55:55.325Z,9.33
2023-04-19T15:58:23.382Z,9.73
2023-04-19T16:00:50.713Z,9.53
2023-04-19T16:03:17.705Z,10.53
2023-04-19T16:05:44.768Z,9.70
2023-04-19T16:08:12.051Z,10.53
2023-04-19T16:10:38.954Z,10.50
2023-04-19T16:13:06.754Z,10.90
2023-04-19T16:15:33.581Z,10.50
2023-04-19T16:18:00.512Z,12.50
2023-04-19T16:20:27.435Z,12.80
2023-04-19T16:22:54.320Z,10.67
2023-04-19T16:25:21.317Z,9.83
2023-04-19T16:27:48.191Z,11.73
2023-04-19T16:30:16.251Z,9.67
2023-04-19T16:32:43.942Z,9.67
2023-04-19T16:35:11.344Z,9.10
2023-04-19T16:37:38.263Z,10.10
2023-04-19T16:40:09.767Z,10.40
2023-04-19T16:42:40.527Z,10.60
2023-04-19T16:45:08.641Z,9.67
2023-04-19T16:47:36.456Z,10.30
2023-04-19T16:50:06.469Z,9.60
2023-04-19T16:52:34.882Z,9.93
2023-04-19T16:55:02.488Z,10.30
2023-04-19T16:57:29.551Z,9.73
2023-04-19T16:59:56.582Z,9.50
2023-04-19T17:02:23.810Z,9.13
2023-04-19T17:04:51.075Z,8.50
2023-04-19T17:07:18.122Z,8.23
2023-04-19T17:09:45.001Z,86.07
2023-04-19T17:12:11.884Z,59.60
2023-04-19T17:14:39.951Z,32.37
2023-04-19T17:17:06.852Z,38.57
2023-04-19T17:19:33.654Z,16.13
2023-04-19T17:22:00.595Z,17.23
2023-04-19T17:24:27.456Z,11.67
2023-04-19T17:26:54.399Z,13.73
2023-04-19T17:29:21.239Z,13.20
2023-04-19T17:31:48.225Z,13.37
2023-04-19T17:34:15.284Z,30.93
2023-04-19T17:36:42.242Z,20.40
2023-04-19T17:39:09.086Z,15.93
2023-04-19T17:41:35.880Z,16.40
2023-04-19T17:44:02.758Z,17.07
2023-04-19T17:46:29.637Z,15.37
2023-04-19T17:48:56.532Z,17.70
2023-04-19T17:51:23.350Z,13.63
2023-04-19T17:53:50.193Z,13.77
2023-04-19T17:56:17.192Z,13.27
2023-04-19T17:58:44.040Z,10.67
2023-04-19T18:01:11.012Z,11.10
2023-04-19T18:03:37.957Z,10.97
2023-04-19T18:06:06.009Z,12.20
2023-04-19T18:08:32.894Z,9.57
2023-04-19T18:10:59.799Z,10.03
2023-04-19T18:13:26.734Z,11.27
2023-04-19T18:15:53.559Z,14.87
2023-04-19T18:18:20.452Z,13.23
2023-04-19T18:20:47.305Z,11.43
2023-04-19T18:23:14.190Z,12.07
2023-04-19T18:25:41.252Z,10.50
2023-04-19T18:28:08.094Z,11.13
2023-04-19T18:30:35.696Z,11.37
2023-04-19T18:33:02.600Z,13.07
2023-04-19T18:35:29.873Z,12.07
2023-04-19T18:37:57.399Z,13.33
2023-04-19T18:40:24.485Z,11.87
2023-04-19T18:42:51.322Z,11.57
2023-04-19T18:45:19.540Z,12.40
2023-04-19T18:47:46.912Z,10.23
2023-04-19T18:50:18.664Z,11.33
2023-04-19T18:52:46.245Z,11.10
2023-04-19T18:55:14.635Z,11.60
2023-04-19T18:57:41.488Z,11.50
2023-04-19T19:00:10.391Z,12.50
2023-04-19T19:02:40.650Z,10.70
2023-04-19T19:05:09.317Z,12.63
2023-04-19T19:07:37.398Z,11.40
2023-04-19T19:10:18.552Z,10.27
2023-04-19T19:12:49.553Z,12.07
2023-04-19T19:15:17.193Z,11.57
2023-04-19T19:17:44.136Z,11.20
2023-04-19T19:20:11.633Z,10.90
2023-04-19T19:22:38.921Z,11.23
2023-04-19T19:25:06.530Z,10.90
2023-04-19T19:27:33.400Z,14.90
2023-04-19T19:30:01.261Z,14.57
2023-04-19T19:32:28.545Z,15.23
2023-04-19T19:35:01.176Z,15.13
2023-04-19T19:37:29.271Z,16.07
2023-04-19T19:39:56.740Z,13.60
2023-04-19T19:42:24.512Z,12.40
2023-04-19T19:44:55.637Z,11.57
2023-04-19T19:47:24.577Z,10.70
2023-04-19T19:50:34.805Z,11.20
2023-04-19T19:52:38.589Z,12.17
2023-04-19T19:55:07.023Z,10.83
2023-04-19T20:00:22.869Z,12.17
2023-04-19T20:02:56.176Z,13.40
2023-04-19T20:05:24.190Z,17.10
2023-04-19T20:10:21.343Z,16.57
2023-04-19T20:12:48.621Z,16.30
2023-04-19T20:15:15.550Z,15.07
2023-04-19T20:17:42.456Z,14.33
2023-04-19T20:20:10.292Z,14.00
2023-04-19T20:22:37.733Z,14.67
2023-04-19T20:25:05.235Z,19.10
2023-04-19T20:27:33.291Z,14.87
2023-04-19T20:30:00.229Z,15.77
2023-04-19T20:32:27.223Z,14.43
2023-04-19T20:34:54.186Z,13.03
2023-04-19T20:37:21.007Z,14.53
2023-04-19T20:39:48.431Z,14.10
2023-04-19T20:42:15.318Z,14.17
2023-04-19T20:44:42.156Z,12.93
2023-04-19T20:47:09.103Z,14.73
2023-04-19T20:49:35.977Z,13.77
2023-04-19T20:52:02.787Z,17.67
2023-04-19T20:54:29.684Z,13.73
2023-04-19T20:57:01.013Z,16.60
2023-04-19T20:59:27.886Z,15.57
2023-04-19T21:01:54.684Z,15.10
2023-04-19T21:04:21.722Z,14.20
2023-04-19T21:06:48.875Z,16.20
2023-04-19T21:09:16.010Z,16.33
2023-04-19T21:11:43.065Z,15.10
2023-04-19T21:14:10.183Z,15.27
2023-04-19T21:16:37.045Z,17.63
2023-04-19T21:19:04.010Z,15.70
2023-04-19T21:21:32.409Z,16.93
2023-04-19T21:23:59.586Z,15.43
2023-04-19T21:26:26.668Z,15.63
2023-04-19T21:28:53.707Z,16.57
2023-04-19T21:31:20.618Z,17.63
2023-04-19T21:33:47.459Z,16.33
2023-04-19T21:36:14.332Z,17.13
2023-04-19T21:38:41.235Z,18.03
2023-04-19T21:41:08.260Z,19.10
2023-04-19T21:43:35.161Z,22.23
2023-04-19T21:46:02.157Z,17.37
2023-04-19T21:48:29.075Z,22.40
2023-04-19T21:50:55.863Z,19.07
2023-04-19T21:53:22.762Z,18.70
2023-04-19T21:55:50.289Z,18.40
2023-04-19T21:58:18.508Z,21.10
2023-04-19T22:00:45.716Z,19.23
2023-04-19T22:03:13.049Z,17.93
2023-04-19T22:05:40.209Z,19.27
2023-04-19T22:08:07.486Z,17.20
2023-04-19T22:10:34.465Z,19.57
2023-04-19T22:13:03.948Z,18.10
2023-04-19T22:15:32.169Z,20.80
2023-04-19T22:17:59.112Z,18.97
2023-04-19T22:20:26.183Z,20.03
2023-04-19T22:22:53.085Z,22.67
2023-04-19T22:25:20.204Z,17.97
2023-04-19T22:27:47.150Z,22.00
2023-04-19T22:30:14.397Z,19.50
2023-04-19T22:32:41.271Z,17.97
2023-04-19T22:35:09.309Z,18.63
2023-04-19T22:37:36.185Z,20.37
2023-04-19T22:40:03.211Z,21.47
2023-04-19T22:42:30.044Z,18.80
2023-04-19T22:44:56.863Z,19.60
2023-04-19T22:47:23.815Z,19.33
2023-04-19T22:49:50.673Z,23.70
2023-04-19T22:52:17.547Z,20.93
2023-04-19T22:54:45.153Z,19.27
2023-04-19T22:57:12.059Z,19.20
2023-04-19T22:59:39.054Z,17.77
2023-04-19T23:02:05.973Z,21.80
2023-04-19T23:04:34.325Z,20.07
2023-04-19T23:07:01.487Z,19.40
2023-04-19T23:09:28.348Z,23.00
2023-04-19T23:11:55.405Z,22.80
2023-04-19T23:14:22.267Z,19.97
2023-04-19T23:16:49.096Z,21.53
2023-04-19T23:19:16.224Z,20.80
2023-04-19T23:21:43.287Z,21.67
2023-04-19T23:24:10.117Z,19.20
2023-04-19T23:26:36.935Z,24.53
2023-04-19T23:29:03.783Z,21.30
2023-04-19T23:31:30.699Z,23.77
2023-04-19T23:33:57.607Z,23.17
2023-04-19T23:36:24.485Z,26.13
2023-04-19T23:38:51.345Z,24.97
2023-04-19T23:41:18.286Z,24.50
2023-04-19T23:43:46.387Z,23.07
2023-04-19T23:46:13.365Z,25.50
2023-04-19T23:48:40.211Z,24.50
2023-04-19T23:51:07.006Z,26.70
2023-04-19T23:53:33.883Z,26.33
2023-04-19T23:56:00.741Z,27.07
2023-04-19T23:58:27.577Z,29.07
